createdAt,value
2022-12-14T00:00:53.473Z,-1.4
2022-12-14T00:05:55.623Z,-1.4
2022-12-14T00:10:57.609Z,-1.4
2022-12-14T00:16:00.185Z,-1.5
2022-12-14T00:21:02.487Z,-1.4
2022-12-14T00:26:04.538Z,-1.4
2022-12-14T00:31:06.860Z,-1.5
2022-12-14T00:36:09.201Z,-1.5
2022-12-14T00:41:11.666Z,-1.5
2022-12-14T00:46:13.774Z,-1.5
2022-12-14T00:51:16.362Z,-1.5
2022-12-14T00:56:18.349Z,-1.5
2022-12-14T01:01:21.054Z,-1.7
2022-12-14T01:06:23.422Z,-1.7
2022-12-14T01:11:25.449Z,-1.6
2022-12-14T01:16:27.541Z,-1.5
2022-12-14T01:21:29.575Z,-1.6
2022-12-14T01:26:31.576Z,-1.5
2022-12-14T01:31:33.742Z,-1.6
2022-12-14T01:36:35.878Z,-1.5
2022-12-14T01:41:37.878Z,-1.7
2022-12-14T01:46:40.114Z,-1.6
2022-12-14T01:51:42.155Z,-1.5
2022-12-14T01:56:44.156Z,-1.6
2022-12-14T02:01:50.363Z,-1.6
2022-12-14T02:07:02.281Z,-1.5
2022-12-14T02:11:54.523Z,-1.5
2022-12-14T02:16:56.559Z,-1.6
2022-12-14T02:21:58.497Z,-1.7
2022-12-14T02:27:00.420Z,-1.7
2022-12-14T02:32:02.499Z,-1.8
2022-12-14T02:37:04.455Z,-1.7
2022-12-14T02:42:06.456Z,-1.7
2022-12-14T02:47:08.501Z,-1.7
2022-12-14T02:52:10.578Z,-1.7
2022-12-14T02:57:12.567Z,-1.8
2022-12-14T03:02:15.429Z,-1.8
2022-12-14T03:07:17.759Z,-1.9
2022-12-14T03:12:19.718Z,-1.9
2022-12-14T03:17:21.789Z,-1.8
2022-12-14T03:22:24.130Z,-1.8
2022-12-14T03:27:26.155Z,-1.8
2022-12-14T03:32:28.413Z,-1.8
2022-12-14T03:37:30.538Z,-1.8
2022-12-14T03:42:33.070Z,-1.8
2022-12-14T03:47:35.096Z,-1.8
2022-12-14T03:52:37.236Z,-1.8
2022-12-14T03:57:40.542Z,-1.8
2022-12-14T04:02:43.341Z,-1.8
2022-12-14T04:07:49.461Z,-1.9
2022-12-14T04:12:53.467Z,-1.9
2022-12-14T04:17:55.583Z,-1.9
2022-12-14T04:22:57.712Z,-1.8
2022-12-14T04:28:00.219Z,-1.8
2022-12-14T04:33:02.449Z,-1.8
2022-12-14T04:38:04.833Z,-1.8
2022-12-14T04:43:06.933Z,-1.8
2022-12-14T04:48:09.200Z,-1.8
2022-12-14T04:53:11.460Z,-1.8
2022-12-14T04:58:13.749Z,-1.9
2022-12-14T05:03:15.798Z,-1.9
2022-12-14T05:08:17.938Z,-1.9
2022-12-14T05:13:19.982Z,-1.9
2022-12-14T05:18:22.053Z,-2
2022-12-14T05:23:24.161Z,-1.9
2022-12-14T05:28:27.035Z,-1.9
2022-12-14T05:33:30.691Z,-2
2022-12-14T05:38:33.314Z,-1.9
2022-12-14T05:43:38.951Z,-2
2022-12-14T05:48:49.104Z,-2
2022-12-14T05:53:41.753Z,-2
2022-12-14T05:58:44.984Z,-2
2022-12-14T06:03:47.115Z,-2.1
2022-12-14T06:08:49.637Z,-2
2022-12-14T06:13:52.390Z,-2
2022-12-14T06:18:55.451Z,-2
2022-12-14T06:23:58.119Z,-1.9
2022-12-14T06:29:00.381Z,-2
2022-12-14T06:34:02.609Z,-1.9
2022-12-14T06:39:04.751Z,-1.9
2022-12-14T06:44:06.850Z,-1.9
2022-12-14T06:49:09.188Z,-1.9
2022-12-14T06:54:11.397Z,-1.9
2022-12-14T06:59:13.580Z,-1.8
2022-12-14T07:04:15.797Z,-1.8
2022-12-14T07:09:18.552Z,-1.7
2022-12-14T07:14:21.247Z,-1.7
2022-12-14T07:19:23.918Z,-1.7
2022-12-14T07:24:26.987Z,-1.6
2022-12-14T07:29:36.300Z,-1.4
2022-12-14T07:34:38.599Z,-1.5
2022-12-14T07:39:40.640Z,-1.3
2022-12-14T07:44:42.760Z,-1.2
2022-12-14T07:49:44.916Z,-1.1
2022-12-14T07:54:49.561Z,-1
2022-12-14T07:59:58.794Z,-1.1
2022-12-14T08:05:01.216Z,-1
2022-12-14T08:10:03.596Z,-0.9
2022-12-14T08:15:05.837Z,-0.4
2022-12-14T08:20:07.977Z,-0.3
2022-12-14T08:25:10.161Z,-0.6
2022-12-14T08:30:12.309Z,-0.6
2022-12-14T08:35:14.478Z,-0.6
2022-12-14T08:40:16.680Z,-0.6
2022-12-14T08:45:18.980Z,-0.6
2022-12-14T08:50:21.077Z,-0.7
2022-12-14T08:55:38.564Z,-0.8
2022-12-14T09:00:31.426Z,-0.7
2022-12-14T09:05:33.796Z,-0.7
2022-12-14T09:10:35.963Z,-0.6
2022-12-14T09:15:38.031Z,-0.5
2022-12-14T09:20:40.205Z,-0.3
2022-12-14T09:25:42.533Z,-0.3
2022-12-14T09:30:44.728Z,-0.4
2022-12-14T09:35:47.269Z,0
2022-12-14T09:40:52.576Z,0.1
2022-12-14T09:45:54.803Z,0.1
2022-12-14T09:50:57.323Z,0.2
2022-12-14T09:55:59.637Z,0.3
2022-12-14T10:01:02.971Z,0.6
2022-12-14T10:06:05.279Z,0.6
2022-12-14T10:11:07.408Z,0.3
2022-12-14T10:16:10.252Z,0.1
2022-12-14T10:21:12.483Z,0.1
2022-12-14T10:26:14.559Z,0.2
2022-12-14T10:31:19.540Z,0.4
2022-12-14T10:36:22.564Z,0.5
2022-12-14T10:41:24.748Z,0.5
2022-12-14T10:46:27.048Z,0.6
2022-12-14T10:51:29.287Z,0.4
2022-12-14T10:56:32.070Z,0.4
2022-12-14T11:01:35.286Z,0.6
2022-12-14T11:06:37.758Z,0.5
2022-12-14T11:11:40.131Z,0.5
2022-12-14T11:16:42.978Z,0.5
2022-12-14T11:21:46.719Z,0.4
2022-12-14T11:26:52.319Z,0.4
2022-12-14T11:31:54.620Z,0.4
2022-12-14T11:36:56.752Z,0.2
2022-12-14T11:41:58.823Z,0.1
2022-12-14T11:47:02.182Z,0.1
2022-12-14T11:52:04.891Z,0
2022-12-14T11:57:07.746Z,-0.1
2022-12-14T12:02:10.184Z,-0.1
2022-12-14T12:07:13.026Z,-0.1
2022-12-14T12:12:15.066Z,-0.2
2022-12-14T12:22:17.745Z,-0.1
2022-12-14T12:27:20.770Z,0.1
2022-12-14T12:32:22.838Z,0.1
2022-12-14T12:37:29.510Z,0.4
2022-12-14T12:42:31.476Z,0.4
2022-12-14T12:47:49.341Z,0.2
2022-12-14T12:52:41.579Z,0.2
2022-12-14T12:57:43.629Z,0.3
2022-12-14T13:02:52.236Z,0.5
2022-12-14T13:07:54.642Z,0.5
2022-12-14T13:12:56.660Z,0.4
2022-12-14T13:17:58.652Z,0.3
2022-12-14T13:28:04.930Z,0.2
2022-12-14T13:33:06.874Z,0.1
2022-12-14T13:38:08.787Z,0.2
2022-12-14T13:43:10.737Z,0.3
2022-12-14T13:48:12.791Z,0.1
2022-12-14T13:53:15.326Z,0.1
2022-12-14T13:58:17.379Z,0
2022-12-14T14:03:19.573Z,0
2022-12-14T14:08:37.774Z,0
2022-12-14T14:13:24.219Z,0
2022-12-14T14:18:26.280Z,0
2022-12-14T14:23:28.719Z,-0.1
2022-12-14T14:28:31.698Z,0
2022-12-14T14:33:51.220Z,-0.1
2022-12-14T14:38:43.400Z,-0.1
2022-12-14T14:43:51.600Z,-0.2
2022-12-14T14:48:55.144Z,-0.3
2022-12-14T14:53:57.902Z,-0.2
2022-12-14T14:59:00.145Z,-0.3
2022-12-14T15:04:02.848Z,-0.3
2022-12-14T15:09:05.532Z,-0.3
2022-12-14T15:14:08.548Z,-0.3
2022-12-14T15:19:10.674Z,-0.3
2022-12-14T15:24:12.870Z,-0.3
2022-12-14T15:29:14.974Z,-0.3
2022-12-14T15:34:17.042Z,-0.3
2022-12-14T15:39:19.107Z,-0.3
2022-12-14T15:44:21.420Z,-0.3
2022-12-14T15:49:23.743Z,-0.3
2022-12-14T15:54:25.710Z,-0.2
2022-12-14T15:59:27.691Z,-0.2
2022-12-14T16:04:32.550Z,-0.2
2022-12-14T16:09:35.269Z,-0.3
2022-12-14T16:14:37.352Z,-0.2
2022-12-14T16:20:03.623Z,-0.2
2022-12-14T16:24:51.661Z,-0.3
2022-12-14T16:29:55.211Z,-0.3
2022-12-14T16:35:01.551Z,-0.3
2022-12-14T16:40:04.076Z,-0.3
2022-12-14T16:45:06.162Z,-0.3
2022-12-14T16:50:08.266Z,-0.2
2022-12-14T16:55:08.861Z,-0.2
2022-12-14T17:00:11.721Z,-0.2
2022-12-14T17:05:15.323Z,-0.1
2022-12-14T17:10:18.288Z,-0.2
2022-12-14T17:15:20.323Z,-0.2
2022-12-14T17:20:22.839Z,-0.1
2022-12-14T17:25:26.576Z,-0.1
2022-12-14T17:30:28.598Z,-0.2
2022-12-14T17:35:30.638Z,-0.1
2022-12-14T17:40:32.620Z,-0.1
2022-12-14T17:45:34.556Z,-0.1
2022-12-14T17:50:38.687Z,0
2022-12-14T17:55:40.771Z,0
2022-12-14T18:00:42.978Z,0
2022-12-14T18:05:51.163Z,0
2022-12-14T18:10:54.437Z,0.1
2022-12-14T18:15:57.498Z,0.2
2022-12-14T18:21:00.095Z,0.1
2022-12-14T18:26:02.215Z,0.3
2022-12-14T18:31:04.687Z,0.5
2022-12-14T18:36:06.796Z,0.4
2022-12-14T18:41:12.355Z,0.6
2022-12-14T18:46:15.240Z,0.7
2022-12-14T18:51:18.244Z,0.6
2022-12-14T18:56:20.548Z,0.6
2022-12-14T19:01:23.779Z,0.7
2022-12-14T19:06:57.092Z,0.7
2022-12-14T19:11:29.842Z,0.7
2022-12-14T19:16:32.642Z,0.4
2022-12-14T19:21:35.268Z,0.4
2022-12-14T19:26:37.479Z,0.5
2022-12-14T19:31:40.091Z,0.7
2022-12-14T19:36:42.778Z,0.7
2022-12-14T19:41:45.189Z,0.9
2022-12-14T19:46:47.892Z,1.3
2022-12-14T19:51:50.249Z,1.3
2022-12-14T19:56:52.479Z,1.2
2022-12-14T20:01:55.155Z,1.1
2022-12-14T20:06:57.915Z,1.1
2022-12-14T20:12:00.319Z,1.1
2022-12-14T20:17:02.374Z,1.1
2022-12-14T20:22:04.499Z,1.1
2022-12-14T20:27:06.476Z,1.1
2022-12-14T20:32:08.667Z,1.1
2022-12-14T20:37:10.711Z,1.1
2022-12-14T20:42:13.302Z,1.1
2022-12-14T20:47:16.906Z,1.1
2022-12-14T20:52:20.195Z,1.1
2022-12-14T20:57:22.990Z,1.1
2022-12-14T21:02:26.311Z,1.1
2022-12-14T21:07:28.509Z,1
2022-12-14T21:12:30.799Z,0.9
2022-12-14T21:17:33.141Z,0.9
2022-12-14T21:22:35.304Z,1
2022-12-14T21:27:37.378Z,1
2022-12-14T21:32:39.976Z,1
2022-12-14T21:37:41.965Z,1.1
2022-12-14T21:42:43.985Z,1.1
2022-12-14T21:47:46.048Z,1.1
2022-12-14T21:52:48.123Z,1
2022-12-14T21:57:52.076Z,1.1
2022-12-14T22:02:56.533Z,1.2
2022-12-14T22:07:59.716Z,1
2022-12-14T22:13:01.801Z,1
2022-12-14T22:18:03.819Z,1
2022-12-14T22:23:05.824Z,1
2022-12-14T22:28:07.816Z,0.9
2022-12-14T22:33:09.784Z,0.8
2022-12-14T22:38:11.970Z,0.9
2022-12-14T22:43:14.568Z,1.2
2022-12-14T22:48:16.736Z,1.2
2022-12-14T22:53:18.693Z,1.2
2022-12-14T22:58:20.672Z,1.2
2022-12-14T23:03:22.857Z,1.2
2022-12-14T23:08:25.045Z,1.3
2022-12-14T23:13:27.366Z,1.3
2022-12-14T23:18:29.977Z,1.4
2022-12-14T23:23:33.772Z,1.5
2022-12-14T23:28:36.752Z,1.5
2022-12-14T23:33:38.715Z,1.5
2022-12-14T23:38:40.594Z,1.4
2022-12-14T23:43:42.539Z,1.4
2022-12-14T23:48:44.580Z,1.5
2022-12-14T23:53:51.757Z,1.4
2022-12-14T23:58:54.039Z,1.4
